createdAt,value
2023-05-09T00:00:48.181Z,14.2
2023-05-09T00:03:19.967Z,14.2
2023-05-09T00:05:50.928Z,14.2
2023-05-09T00:08:21.787Z,14.1
2023-05-09T00:10:52.247Z,14.1
2023-05-09T00:13:22.954Z,14.1
2023-05-09T00:15:53.658Z,13.9
2023-05-09T00:18:24.426Z,13.9
2023-05-09T00:20:55.773Z,13.6
2023-05-09T00:23:26.500Z,13.6
2023-05-09T00:25:57.702Z,13.6
2023-05-09T00:28:28.655Z,13.6
2023-05-09T00:30:59.452Z,13.7
2023-05-09T00:33:30.197Z,13.9
2023-05-09T00:36:01.323Z,13.9
2023-05-09T00:38:32.163Z,13.9
2023-05-09T00:41:03.420Z,13.7
2023-05-09T00:43:33.875Z,13.6
2023-05-09T00:46:04.472Z,13.8
2023-05-09T00:48:35.122Z,13.7
2023-05-09T00:51:06.193Z,13.5
2023-05-09T00:53:36.853Z,13.5
2023-05-09T00:56:07.678Z,13.4
2023-05-09T00:58:38.381Z,13.4
2023-05-09T01:01:09.476Z,13.3
2023-05-09T01:03:40.358Z,13.3
2023-05-09T01:06:11.501Z,13.4
2023-05-09T01:08:42.647Z,13.3
2023-05-09T01:11:13.792Z,13.2
2023-05-09T01:13:44.534Z,12.9
2023-05-09T01:16:15.231Z,12.9
2023-05-09T01:18:46.569Z,12.9
2023-05-09T01:21:17.544Z,12.9
2023-05-09T01:23:48.412Z,13
2023-05-09T01:26:19.088Z,13
2023-05-09T01:28:49.918Z,13
2023-05-09T01:31:21.161Z,13.1
2023-05-09T01:33:51.943Z,13.1
2023-05-09T01:36:22.708Z,13
2023-05-09T01:38:53.901Z,13
2023-05-09T01:41:25.240Z,13
2023-05-09T01:43:56.219Z,12.7
2023-05-09T01:46:30.973Z,12.8
2023-05-09T01:49:02.009Z,12.8
2023-05-09T01:51:32.705Z,12.5
2023-05-09T01:54:04.428Z,12.7
2023-05-09T01:56:39.618Z,12.7
2023-05-09T01:59:11.030Z,12.8
2023-05-09T02:01:42.178Z,12.8
2023-05-09T02:04:12.943Z,13
2023-05-09T02:06:43.520Z,13
2023-05-09T02:09:14.682Z,13.1
2023-05-09T02:11:45.475Z,12.8
2023-05-09T02:14:15.871Z,12.7
2023-05-09T02:16:46.982Z,12.9
2023-05-09T02:19:17.851Z,13
2023-05-09T02:21:48.626Z,12.9
2023-05-09T02:24:20.032Z,12.8
2023-05-09T02:26:51.398Z,12.7
2023-05-09T02:29:22.338Z,12.8
2023-05-09T02:31:53.279Z,12.5
2023-05-09T02:34:24.137Z,12.4
2023-05-09T02:36:55.141Z,12.4
2023-05-09T02:39:26.088Z,12.4
2023-05-09T02:41:56.557Z,12.3
2023-05-09T02:44:27.227Z,12.3
2023-05-09T02:46:57.979Z,12.4
2023-05-09T02:49:32.251Z,12.5
2023-05-09T02:51:59.607Z,12.5
2023-05-09T02:54:30.431Z,12.4
2023-05-09T02:57:01.086Z,12.4
2023-05-09T02:59:31.814Z,12.3
2023-05-09T03:02:02.705Z,12.4
2023-05-09T03:04:33.914Z,12.3
2023-05-09T03:07:04.980Z,12.2
2023-05-09T03:09:35.862Z,12.4
2023-05-09T03:12:06.874Z,12.4
2023-05-09T03:14:37.456Z,12.4
2023-05-09T03:17:08.401Z,12.5
2023-05-09T03:19:39.587Z,12.4
2023-05-09T03:22:10.662Z,12.4
2023-05-09T03:24:41.047Z,12.5
2023-05-09T03:27:11.783Z,12.5
2023-05-09T03:29:42.252Z,12.5
2023-05-09T03:32:14.634Z,12.4
2023-05-09T03:34:43.803Z,12.2
2023-05-09T03:37:14.294Z,12.1
2023-05-09T03:39:45.177Z,12.3
2023-05-09T03:42:16.009Z,12.4
2023-05-09T03:44:46.941Z,12.4
2023-05-09T03:47:17.948Z,12.4
2023-05-09T03:49:49.022Z,12.4
2023-05-09T03:52:19.792Z,12.6
2023-05-09T03:54:50.670Z,12.6
2023-05-09T03:57:21.362Z,12.6
2023-05-09T03:59:51.791Z,12.3
2023-05-09T04:02:22.719Z,12.3
2023-05-09T04:04:53.859Z,12.3
2023-05-09T04:07:25.017Z,12.3
2023-05-09T04:09:56.019Z,12.4
2023-05-09T04:12:27.025Z,12.4
2023-05-09T04:14:57.532Z,12.4
2023-05-09T04:17:28.720Z,12.7
2023-05-09T04:19:59.774Z,12.6
2023-05-09T04:22:30.384Z,12.6
2023-05-09T04:25:01.018Z,12.6
2023-05-09T04:27:31.085Z,12.7
2023-05-09T04:30:01.711Z,12.7
2023-05-09T04:32:32.398Z,12.6
2023-05-09T04:35:03.266Z,12.7
2023-05-09T04:37:34.298Z,12.8
2023-05-09T04:40:05.237Z,12.7
2023-05-09T04:42:35.811Z,12.8
2023-05-09T04:45:06.651Z,12.9
2023-05-09T04:47:37.499Z,12.9
2023-05-09T04:50:09.090Z,12.9
2023-05-09T04:52:40.479Z,12.9
2023-05-09T04:55:11.142Z,12.9
2023-05-09T04:57:41.832Z,12.9
2023-05-09T05:00:12.406Z,12.9
2023-05-09T05:02:43.083Z,12.8
2023-05-09T05:05:13.352Z,12.8
2023-05-09T05:07:44.281Z,12.8
2023-05-09T05:10:15.209Z,12.7
2023-05-09T05:12:46.196Z,12.7
2023-05-09T05:15:17.753Z,12.9
2023-05-09T05:17:48.901Z,12.9
2023-05-09T05:20:19.777Z,12.9
2023-05-09T05:22:50.795Z,12.9
2023-05-09T05:25:19.837Z,12.9
2023-05-09T05:27:49.992Z,12.9
2023-05-09T05:30:20.525Z,12.9
2023-05-09T05:32:50.998Z,12.9
2023-05-09T05:35:23.035Z,13
2023-05-09T05:37:53.822Z,13
2023-05-09T05:40:24.463Z,12.9
2023-05-09T05:42:55.064Z,12.9
2023-05-09T05:45:25.437Z,12.9
2023-05-09T05:47:55.880Z,12.9
2023-05-09T05:50:26.540Z,13
2023-05-09T05:52:57.168Z,13
2023-05-09T05:55:29.431Z,13.2
2023-05-09T05:57:59.124Z,13.3
2023-05-09T06:00:29.739Z,13.3
2023-05-09T06:02:59.325Z,13.4
2023-05-09T06:05:29.828Z,13.4
2023-05-09T06:08:00.697Z,13.5
2023-05-09T06:10:32.644Z,13.6
2023-05-09T06:13:03.219Z,13.6
2023-05-09T06:15:37.388Z,13.7
2023-05-09T06:18:07.846Z,13.8
2023-05-09T06:20:38.151Z,13.8
2023-05-09T06:23:08.651Z,13.9
2023-05-09T06:25:39.167Z,13.9
2023-05-09T06:28:09.599Z,14.2
2023-05-09T06:30:40.919Z,14.4
2023-05-09T06:33:11.220Z,14.4
2023-05-09T06:35:41.742Z,14.5
2023-05-09T06:38:12.647Z,14.6
2023-05-09T06:40:43.198Z,14.8
2023-05-09T06:43:13.542Z,14.8
2023-05-09T06:45:44.182Z,14.8
2023-05-09T06:48:18.970Z,15
2023-05-09T06:50:49.406Z,15.1
2023-05-09T06:53:20.024Z,15.1
2023-05-09T06:55:50.796Z,15.3
2023-05-09T06:58:21.234Z,15.3
2023-05-09T07:00:51.591Z,15.3
2023-05-09T07:03:22.536Z,15.3
2023-05-09T07:05:55.184Z,15.5
2023-05-09T07:08:27.284Z,15.7
2023-05-09T07:11:06.664Z,15.7
2023-05-09T07:13:36.751Z,15.9
2023-05-09T07:16:14.319Z,15.9
2023-05-09T07:18:46.887Z,16.1
2023-05-09T07:21:17.884Z,16.1
2023-05-09T07:23:49.424Z,16.1
2023-05-09T07:26:19.838Z,16.1
2023-05-09T07:28:50.365Z,16.2
2023-05-09T07:31:20.759Z,16.2
2023-05-09T07:33:51.154Z,16.2
2023-05-09T07:36:21.314Z,16.2
2023-05-09T07:38:52.082Z,16
2023-05-09T07:41:22.778Z,16.1
2023-05-09T07:43:53.310Z,16
2023-05-09T07:46:23.602Z,16
2023-05-09T07:48:56.398Z,16
2023-05-09T07:51:28.735Z,16.2
2023-05-09T07:53:59.623Z,16.2
2023-05-09T07:56:35.275Z,16.4
2023-05-09T07:59:06.309Z,16.5
2023-05-09T08:01:36.103Z,16.5
2023-05-09T08:04:09.869Z,16.6
2023-05-09T08:06:47.744Z,16.7
2023-05-09T08:09:18.108Z,16.9
2023-05-09T08:11:49.149Z,17
2023-05-09T08:14:19.842Z,17
2023-05-09T08:16:50.941Z,17.1
2023-05-09T08:19:23.974Z,17.1
2023-05-09T08:22:03.410Z,17.2
2023-05-09T08:24:33.846Z,17.2
2023-05-09T08:27:04.174Z,17.3
2023-05-09T08:29:34.213Z,17.3
2023-05-09T08:32:08.583Z,17
2023-05-09T08:34:39.287Z,17.1
2023-05-09T08:37:12.254Z,17.1
2023-05-09T08:39:50.349Z,17.1
2023-05-09T08:42:20.390Z,17.2
2023-05-09T08:44:50.916Z,17.3
2023-05-09T08:47:23.844Z,17.3
2023-05-09T08:49:55.550Z,17.3
2023-05-09T08:52:26.978Z,17.4
2023-05-09T08:54:57.773Z,17.4
2023-05-09T08:57:28.227Z,17.5
2023-05-09T08:59:58.906Z,17.7
2023-05-09T09:02:31.565Z,17.6
2023-05-09T09:05:03.177Z,17.6
2023-05-09T09:07:33.948Z,17.8
2023-05-09T09:10:13.925Z,17.7
2023-05-09T09:12:44.135Z,17.8
2023-05-09T09:15:17.341Z,17.9
2023-05-09T09:17:52.582Z,17.9
2023-05-09T09:20:24.462Z,17.9
2023-05-09T09:22:54.488Z,18.1
2023-05-09T09:25:25.817Z,18.2
2023-05-09T09:27:56.085Z,18.4
2023-05-09T09:30:26.552Z,18.5
2023-05-09T09:32:56.518Z,18.5
2023-05-09T09:35:26.589Z,18.6
2023-05-09T09:37:59.156Z,18.6
2023-05-09T09:40:27.843Z,18.8
2023-05-09T09:43:02.746Z,18.7
2023-05-09T09:45:38.002Z,18.7
2023-05-09T09:48:10.426Z,18.8
2023-05-09T09:50:46.756Z,18.9
2023-05-09T09:53:26.494Z,19
2023-05-09T09:55:57.752Z,19
2023-05-09T09:58:28.155Z,19.1
2023-05-09T10:01:03.318Z,19.1
2023-05-09T10:03:35.309Z,19.1
2023-05-09T10:06:05.993Z,19.1
2023-05-09T10:08:36.670Z,19
2023-05-09T10:11:08.834Z,19
2023-05-09T10:13:39.499Z,18.9
2023-05-09T10:16:10.637Z,18.9
2023-05-09T10:18:41.342Z,18.8
2023-05-09T10:21:14.611Z,18.6
2023-05-09T10:23:45.919Z,18.7
2023-05-09T10:26:19.527Z,18.6
2023-05-09T10:28:50.016Z,18.8
2023-05-09T10:31:21.205Z,18.8
2023-05-09T10:33:51.246Z,18.9
2023-05-09T10:36:23.679Z,19
2023-05-09T10:38:53.761Z,19.2
2023-05-09T10:41:24.417Z,19.3
2023-05-09T10:43:54.862Z,19.5
2023-05-09T10:46:29.385Z,19.4
2023-05-09T10:49:03.172Z,19.2
2023-05-09T10:51:33.632Z,19.1
2023-05-09T10:54:04.163Z,19.2
2023-05-09T10:56:34.860Z,19.1
2023-05-09T10:59:05.335Z,19.3
2023-05-09T11:01:36.086Z,19.4
2023-05-09T11:04:07.122Z,19.4
2023-05-09T11:06:37.774Z,19.4
2023-05-09T11:09:08.285Z,19.6
2023-05-09T11:11:38.978Z,19.9
2023-05-09T11:14:13.080Z,19.7
2023-05-09T11:16:44.777Z,19.8
2023-05-09T11:19:16.343Z,19.8
2023-05-09T11:21:47.862Z,19.8
2023-05-09T11:24:18.036Z,19.6
2023-05-09T11:26:48.735Z,19.7
2023-05-09T11:29:23.049Z,19.7
2023-05-09T11:31:53.941Z,19.5
2023-05-09T11:34:30.577Z,19.5
2023-05-09T11:37:03.849Z,19.4
2023-05-09T11:39:34.236Z,19.2
2023-05-09T11:42:04.379Z,19
2023-05-09T11:44:43.762Z,19
2023-05-09T11:47:14.150Z,19
2023-05-09T11:49:44.536Z,18.9
2023-05-09T11:52:15.097Z,19
2023-05-09T11:54:45.014Z,19
2023-05-09T11:57:15.545Z,18.9
2023-05-09T11:59:46.119Z,19
2023-05-09T12:02:20.732Z,19.1
2023-05-09T12:04:52.312Z,19
2023-05-09T12:07:23.134Z,19
2023-05-09T12:09:53.533Z,19
2023-05-09T12:12:27.793Z,19
2023-05-09T12:15:00.117Z,18.9
2023-05-09T12:17:32.362Z,19.1
2023-05-09T12:20:03.756Z,19.2
2023-05-09T12:22:36.750Z,19.3
2023-05-09T12:25:09.681Z,19.4
2023-05-09T12:27:43.302Z,19.4
2023-05-09T12:30:13.797Z,19.3
2023-05-09T12:32:44.324Z,19.1
2023-05-09T12:35:15.140Z,19.2
2023-05-09T12:37:47.572Z,19
2023-05-09T12:40:19.915Z,19
2023-05-09T12:42:50.389Z,18.9
2023-05-09T12:45:23.597Z,19
2023-05-09T12:48:03.212Z,19
2023-05-09T12:50:42.439Z,19.1
2023-05-09T12:53:13.823Z,19.1
2023-05-09T12:55:44.139Z,19.4
2023-05-09T12:58:18.130Z,19.5
2023-05-09T13:00:49.040Z,19.7
2023-05-09T13:03:22.510Z,19.5
2023-05-09T13:05:53.700Z,19.5
2023-05-09T13:08:23.968Z,19.3
2023-05-09T13:11:01.030Z,19.3
2023-05-09T13:13:24.903Z,19.4
2023-05-09T13:15:57.947Z,19.6
2023-05-09T13:18:29.406Z,19.5
2023-05-09T13:21:00.773Z,19.9
2023-05-09T13:23:31.308Z,19.7
2023-05-09T13:26:01.965Z,20
2023-05-09T13:28:32.060Z,20.1
2023-05-09T13:31:02.645Z,20.4
2023-05-09T13:33:32.903Z,20.4
2023-05-09T13:36:04.295Z,20.3
2023-05-09T13:38:37.641Z,20.3
2023-05-09T13:41:07.845Z,20.3
2023-05-09T13:43:38.180Z,20.3
2023-05-09T13:46:09.072Z,20.3
2023-05-09T13:48:39.894Z,20.2
2023-05-09T13:51:12.665Z,20.1
2023-05-09T13:53:43.166Z,20
2023-05-09T13:56:18.810Z,19.8
2023-05-09T13:58:49.572Z,19.7
2023-05-09T14:01:20.227Z,19.7
2023-05-09T14:03:50.828Z,19.7
2023-05-09T14:06:22.569Z,19.6
2023-05-09T14:08:56.900Z,19.6
2023-05-09T14:11:27.378Z,19.4
2023-05-09T14:13:58.333Z,19.3
2023-05-09T14:16:28.641Z,19.1
2023-05-09T14:18:59.160Z,19
2023-05-09T14:21:32.648Z,18.9
2023-05-09T14:24:03.238Z,18.9
2023-05-09T14:26:33.535Z,19
2023-05-09T14:29:03.907Z,19
2023-05-09T14:31:34.394Z,19
2023-05-09T14:34:04.475Z,19.1
2023-05-09T14:36:34.932Z,19.2
2023-05-09T14:39:05.023Z,19.1
2023-05-09T14:41:35.452Z,18.9
2023-05-09T14:44:09.623Z,18.9
2023-05-09T14:49:16.797Z,19
2023-05-09T14:51:47.401Z,19
2023-05-09T14:54:18.986Z,18.7
2023-05-09T14:56:47.947Z,18.8
2023-05-09T14:59:18.414Z,18.6
2023-05-09T15:01:48.823Z,18.6
2023-05-09T15:04:22.548Z,18.6
2023-05-09T15:06:53.225Z,18.5
2023-05-09T15:09:24.040Z,18.7
2023-05-09T15:11:58.685Z,18.6
2023-05-09T15:14:38.067Z,18.4
2023-05-09T15:17:09.377Z,18.3
2023-05-09T15:19:52.065Z,18.2
2023-05-09T15:22:22.482Z,18.1
2023-05-09T15:24:52.894Z,18.2
2023-05-09T15:27:29.861Z,18.1
2023-05-09T15:30:00.590Z,17.9
2023-05-09T15:32:31.973Z,17.8
2023-05-09T15:35:02.542Z,18
2023-05-09T15:37:35.044Z,18
2023-05-09T15:40:04.396Z,18
2023-05-09T15:42:34.975Z,17.8
2023-05-09T15:45:06.333Z,17.6
2023-05-09T15:47:36.658Z,17.6
2023-05-09T15:50:09.961Z,17.3
2023-05-09T15:52:40.084Z,17.4
2023-05-09T15:55:10.708Z,17.4
2023-05-09T15:57:43.468Z,17.1
2023-05-09T16:00:14.683Z,17.3
2023-05-09T16:02:45.248Z,17.2
2023-05-09T16:05:18.993Z,17.3
2023-05-09T16:07:54.648Z,17.3
2023-05-09T16:10:24.793Z,17.1
2023-05-09T16:12:58.817Z,17
2023-05-09T16:15:29.332Z,17
2023-05-09T16:17:59.906Z,17
2023-05-09T16:20:32.517Z,16.8
2023-05-09T16:23:02.719Z,16.8
2023-05-09T16:25:35.725Z,16.9
2023-05-09T16:28:06.557Z,16.7
2023-05-09T16:30:37.173Z,16.7
2023-05-09T16:33:07.663Z,16.8
2023-05-09T16:35:38.197Z,16.9
2023-05-09T16:38:08.578Z,16.8
2023-05-09T16:40:39.007Z,16.7
2023-05-09T16:43:10.461Z,16.6
2023-05-09T16:45:41.107Z,16.6
2023-05-09T16:48:11.745Z,16.6
2023-05-09T16:50:42.219Z,16.5
2023-05-09T16:53:12.385Z,16.5
2023-05-09T16:55:42.917Z,16.5
2023-05-09T16:58:13.298Z,16.7
2023-05-09T17:00:44.565Z,16.6
2023-05-09T17:03:16.087Z,16.5
2023-05-09T17:05:46.644Z,16.3
2023-05-09T17:08:19.235Z,16.2
2023-05-09T17:11:01.709Z,16.2
2023-05-09T17:13:36.777Z,16.1
2023-05-09T17:16:10.393Z,16.1
2023-05-09T17:18:41.489Z,16.1
2023-05-09T17:21:14.726Z,15.8
2023-05-09T17:23:47.314Z,15.7
2023-05-09T17:26:20.529Z,15.5
2023-05-09T17:28:50.988Z,15.7
2023-05-09T17:31:21.288Z,15.6
2023-05-09T17:33:51.322Z,15.6
2023-05-09T17:36:23.678Z,15.6
2023-05-09T17:39:02.743Z,15.5
2023-05-09T17:41:33.233Z,15.3
2023-05-09T17:44:04.114Z,15.4
2023-05-09T17:46:34.343Z,15.4
2023-05-09T17:49:05.028Z,15.4
2023-05-09T17:51:37.691Z,15.3
2023-05-09T17:54:07.888Z,15.3
2023-05-09T17:56:40.599Z,15.3
2023-05-09T17:59:11.511Z,15.3
2023-05-09T18:01:41.627Z,15.1
2023-05-09T18:04:12.796Z,15.2
2023-05-09T18:06:52.315Z,14.9
2023-05-09T18:09:22.325Z,14.7
2023-05-09T18:11:52.602Z,14.9
2023-05-09T18:14:23.051Z,15
2023-05-09T18:16:53.713Z,14.7
2023-05-09T18:19:25.079Z,14.9
2023-05-09T18:21:55.606Z,14.8
2023-05-09T18:24:26.117Z,14.8
2023-05-09T18:26:56.545Z,14.9
2023-05-09T18:29:27.213Z,14.9
2023-05-09T18:31:57.666Z,14.9
2023-05-09T18:34:27.748Z,14.8
2023-05-09T18:36:58.237Z,14.9
2023-05-09T18:39:29.005Z,14.8
2023-05-09T18:42:01.438Z,14.9
2023-05-09T18:44:31.767Z,14.8
2023-05-09T18:47:03.643Z,14.7
2023-05-09T18:49:33.828Z,14.6
2023-05-09T18:52:03.436Z,14.4
2023-05-09T18:54:33.937Z,14.4
2023-05-09T18:57:06.363Z,14.4
2023-05-09T18:59:38.521Z,14.3
2023-05-09T19:02:08.871Z,14.2
2023-05-09T19:04:41.619Z,14.2
2023-05-09T19:07:11.652Z,14.3
2023-05-09T19:09:42.229Z,14.3
2023-05-09T19:12:12.145Z,14.2
2023-05-09T19:14:43.453Z,14.3
2023-05-09T19:17:13.356Z,14.1
2023-05-09T19:19:43.443Z,14.1
2023-05-09T19:22:14.070Z,14
2023-05-09T19:24:43.899Z,14
2023-05-09T19:27:14.110Z,14
2023-05-09T19:29:44.721Z,13.7
2023-05-09T19:32:15.931Z,13.9
2023-05-09T19:34:46.420Z,13.9
2023-05-09T19:37:31.985Z,13.8
2023-05-09T19:40:04.850Z,13.9
2023-05-09T19:42:35.743Z,13.9
2023-05-09T19:45:06.291Z,14
2023-05-09T19:47:36.825Z,13.9
2023-05-09T19:50:07.407Z,13.9
2023-05-09T19:52:41.676Z,13.8
2023-05-09T19:55:15.819Z,13.9
2023-05-09T19:57:47.968Z,13.9
2023-05-09T20:00:18.764Z,13.8
2023-05-09T20:02:49.086Z,13.9
2023-05-09T20:05:19.372Z,13.8
2023-05-09T20:07:50.204Z,13.9
2023-05-09T20:10:21.246Z,13.9
2023-05-09T20:12:53.667Z,13.9
2023-05-09T20:15:24.411Z,13.7
2023-05-09T20:17:55.830Z,13.8
2023-05-09T20:20:26.176Z,13.9
2023-05-09T20:22:56.371Z,13.8
2023-05-09T20:25:26.222Z,13.9
2023-05-09T20:27:57.905Z,13.9
2023-05-09T20:30:27.575Z,13.7
2023-05-09T20:32:58.029Z,13.8
2023-05-09T20:35:28.286Z,13.8
2023-05-09T20:37:58.355Z,13.7
2023-05-09T20:40:28.961Z,13.8
2023-05-09T20:43:02.772Z,13.8
2023-05-09T20:45:32.846Z,13.6
2023-05-09T20:48:05.168Z,13.6
2023-05-09T20:50:40.351Z,13.6
2023-05-09T20:53:11.143Z,13.5
2023-05-09T20:55:41.349Z,13.5
2023-05-09T20:58:11.361Z,13.5
2023-05-09T21:00:41.133Z,13.4
2023-05-09T21:03:11.237Z,13.4
2023-05-09T21:05:42.910Z,13.4
2023-05-09T21:08:12.770Z,13.5
2023-05-09T21:10:42.999Z,13.4
2023-05-09T21:13:12.820Z,13.5
2023-05-09T21:15:43.179Z,13.4
2023-05-09T21:18:14.102Z,13.4
2023-05-09T21:20:46.043Z,13.3
2023-05-09T21:23:16.072Z,13.4
2023-05-09T21:25:46.070Z,13.2
2023-05-09T21:28:15.926Z,13.2
2023-05-09T21:30:46.967Z,13.2
2023-05-09T21:33:17.389Z,13.4
2023-05-09T21:35:47.239Z,13.4
2023-05-09T21:38:21.439Z,13.2
2023-05-09T21:40:51.662Z,13.2
2023-05-09T21:43:22.388Z,13.1
2023-05-09T21:46:02.093Z,13.2
2023-05-09T21:48:33.184Z,13.3
2023-05-09T21:51:03.433Z,13.3
2023-05-09T21:53:35.813Z,13.3
2023-05-09T21:56:06.130Z,13.2
2023-05-09T21:58:36.770Z,13.1
2023-05-09T22:01:07.160Z,13.1
2023-05-09T22:03:38.963Z,13.2
2023-05-09T22:06:09.062Z,13.1
2023-05-09T22:08:39.264Z,13.2
2023-05-09T22:11:11.460Z,13.3
2023-05-09T22:13:40.348Z,13.1
2023-05-09T22:16:11.694Z,13.3
2023-05-09T22:18:42.334Z,13.4
2023-05-09T22:21:15.327Z,13.5
2023-05-09T22:23:50.207Z,13.5
2023-05-09T22:26:20.122Z,13.3
2023-05-09T22:28:51.470Z,13.5
2023-05-09T22:31:21.971Z,13.6
2023-05-09T22:33:51.685Z,13.4
2023-05-09T22:36:22.373Z,13.4
2023-05-09T22:38:52.389Z,13.3
2023-05-09T22:41:26.551Z,13.2
2023-05-09T22:43:57.312Z,13.3
2023-05-09T22:46:28.285Z,13.3
2023-05-09T22:48:58.753Z,13.3
2023-05-09T22:51:29.070Z,13.4
2023-05-09T22:53:59.516Z,13.3
2023-05-09T22:56:29.857Z,13.2
2023-05-09T22:59:00.308Z,13.2
2023-05-09T23:01:30.732Z,13.3
2023-05-09T23:04:00.691Z,13.3
2023-05-09T23:06:31.443Z,13.2
2023-05-09T23:09:01.941Z,13.2
2023-05-09T23:11:32.374Z,13.1
2023-05-09T23:14:03.629Z,13
2023-05-09T23:16:34.595Z,12.8
2023-05-09T23:19:04.792Z,12.9
2023-05-09T23:21:35.332Z,12.7
2023-05-09T23:24:06.275Z,12.2
2023-05-09T23:26:36.610Z,12.3
2023-05-09T23:29:06.781Z,12.3
2023-05-09T23:31:36.835Z,12
2023-05-09T23:34:07.423Z,12
2023-05-09T23:36:37.549Z,12
2023-05-09T23:39:08.218Z,11.9
2023-05-09T23:41:38.338Z,11.8
2023-05-09T23:44:08.683Z,11.8
2023-05-09T23:46:38.948Z,11.9
2023-05-09T23:49:08.766Z,12.1
2023-05-09T23:51:39.040Z,11.9
2023-05-09T23:54:09.237Z,12
2023-05-09T23:56:39.122Z,11.9
2023-05-09T23:59:09.697Z,11.9
